Time;durP1;ratioP1;P1;durP2;ratioP2;P2;SDS_P1;SDS_P2;PMS_P1;PMS_P2;Temp;Humidity;BMP_temperature;BMP_pressure;BME280_temperature;BME280_humidity;BME280_pressure;Samples;Min_cycle;Max_cycle;Signal;HPM_P1;HPM_P2
2022/11/22 00:01:09;;;;;;;;;;;10.70;91.10;;;;;;5137030;27;19926;-66
2022/11/22 00:03:35;;;;;;;;;;;10.80;91.20;;;;;;5137325;27;19973;-66
2022/11/22 00:06:00;;;;;;;;;;;10.80;91.20;;;;;;5138420;27;20441;-66
2022/11/22 00:08:26;;;;;;;;;;;10.90;91.20;;;;;;5131314;27;20278;-66
2022/11/22 00:10:52;;;;;;;;;;;11.00;91.20;;;;;;5131044;27;19985;-66
2022/11/22 00:13:17;;;;;;;;;;;10.70;91.20;;;;;;5138419;27;19923;-66
2022/11/22 00:15:43;;;;;;;;;;;11.00;91.20;;;;;;5137101;27;19923;-66
2022/11/22 00:18:09;;;;;;;;;;;;;;;;;;5135698;27;19992;-68
2022/11/22 00:20:36;;;;;;;;;;;;;;;;;;5113895;28;19924;-67
2022/11/22 00:23:01;;;;;;;;;;;10.90;91.20;;;;;;5116072;28;20388;-66
2022/11/22 00:25:27;;;;;;;;;;;10.90;91.30;;;;;;5099285;28;20015;-66
2022/11/22 00:27:53;;;;;;;;;;;10.80;91.20;;;;;;5132018;27;20376;-66
2022/11/22 00:30:18;;;;;;;;;;;11.00;91.30;;;;;;5135573;27;19924;-66
2022/11/22 00:32:44;;;;;;;;;;;;;;;;;;5136780;27;19953;-65
2022/11/22 00:35:10;;;;;;;;;;;10.70;91.00;;;;;;5124186;27;19920;-66
2022/11/22 00:37:36;;;;;;;;;;;10.70;91.20;;;;;;5099149;28;19939;-66
2022/11/22 00:40:02;;;;;;;;;;;10.90;91.30;;;;;;5126008;27;20010;-66
2022/11/22 00:42:27;;;;;;;;;;;11.00;91.30;;;;;;5136956;27;19938;-66
2022/11/22 00:44:53;;;;;;;;;;;10.90;91.30;;;;;;5121557;27;20020;-66
2022/11/22 00:47:19;;;;;;;;;;;10.70;91.30;;;;;;5098982;28;20288;-66
2022/11/22 00:49:44;;;;;;;;;;;10.90;91.10;;;;;;5121354;27;19931;-66
2022/11/22 00:52:10;;;;;;;;;;;10.90;91.00;;;;;;5135937;27;19923;-66
2022/11/22 00:54:36;;;;;;;;;;;10.90;91.30;;;;;;5114586;28;19927;-66
2022/11/22 00:57:02;;;;;;;;;;;10.90;91.30;;;;;;5115742;28;19923;-66
2022/11/22 00:59:27;;;;;;;;;;;10.90;91.30;;;;;;5099332;27;20389;-66
2022/11/22 01:01:53;;;;;;;;;;;10.70;91.20;;;;;;5134383;27;20377;-66
2022/11/22 01:04:19;;;;;;;;;;;11.00;91.30;;;;;;5136091;27;19930;-66
2022/11/22 01:06:44;;;;;;;;;;;10.90;91.30;;;;;;5137318;27;19934;-66
2022/11/22 01:09:12;;;;;;;;;;;10.90;90.90;;;;;;5135618;27;19924;-66
2022/11/22 01:11:38;;;;;;;;;;;11.00;91.30;;;;;;5118000;27;20010;-66
2022/11/22 01:14:06;;;;;;;;;;;;;;;;;;5136884;27;20404;-66
2022/11/22 01:16:32;;;;;;;;;;;10.90;91.30;;;;;;5137180;27;20273;-66
2022/11/22 01:18:57;;;;;;;;;;;10.80;91.30;;;;;;5135397;27;19930;-66
2022/11/22 01:21:23;;;;;;;;;;;10.80;91.20;;;;;;5117284;27;19927;-66
2022/11/22 01:23:49;;;;;;;;;;;;;;;;;;5152922;27;19927;-68
2022/11/22 01:26:15;;;;;;;;;;;11.00;91.30;;;;;;5135737;27;19950;-66
2022/11/22 01:28:40;;;;;;;;;;;10.70;91.30;;;;;;5135269;27;19924;-66
2022/11/22 01:31:06;;;;;;;;;;;10.80;91.30;;;;;;5130370;27;19923;-66
2022/11/22 01:33:32;;;;;;;;;;;10.60;91.20;;;;;;5115017;28;19931;-66
2022/11/22 01:35:57;;;;;;;;;;;10.60;91.20;;;;;;5093661;28;20308;-66
2022/11/22 01:38:23;;;;;;;;;;;10.60;91.20;;;;;;5116171;28;19924;-66
2022/11/22 01:40:48;;;;;;;;;;;10.80;91.30;;;;;;5116526;27;19924;-65
2022/11/22 01:43:24;;;;;;;;;;;10.80;91.30;;;;;;5134385;27;19950;-66
2022/11/22 01:45:53;;;;;;;;;;;10.80;91.30;;;;;;5136292;27;19924;-66
2022/11/22 01:48:19;;;;;;;;;;;10.80;91.30;;;;;;5152295;27;19923;-66
2022/11/22 01:50:45;;;;;;;;;;;10.80;91.30;;;;;;5149599;27;19924;-66
2022/11/22 01:53:13;;;;;;;;;;;10.50;91.20;;;;;;5117734;27;19924;-66
2022/11/22 01:55:39;;;;;;;;;;;10.90;91.40;;;;;;5117682;27;19923;-66
2022/11/22 01:58:05;;;;;;;;;;;10.70;91.30;;;;;;5107981;28;19924;-66
2022/11/22 02:00:30;;;;;;;;;;;10.60;91.30;;;;;;5124123;27;19919;-66
2022/11/22 02:02:57;;;;;;;;;;;11.00;91.40;;;;;;5115683;28;19977;-66
2022/11/22 02:05:24;;;;;;;;;;;10.60;91.20;;;;;;5130370;27;20376;-66
2022/11/22 02:07:59;;;;;;;;;;;10.70;91.30;;;;;;5134953;27;20292;-66
2022/11/22 02:10:25;;;;;;;;;;;10.80;91.30;;;;;;5132845;27;19924;-66
2022/11/22 02:12:51;;;;;;;;;;;10.50;91.30;;;;;;5117728;27;19930;-66
2022/11/22 02:15:17;;;;;;;;;;;10.50;91.30;;;;;;5117362;27;20392;-66
2022/11/22 02:17:42;;;;;;;;;;;10.50;91.30;;;;;;5136265;27;19923;-66
2022/11/22 02:20:08;;;;;;;;;;;10.70;91.30;;;;;;5133256;27;19930;-66
2022/11/22 02:22:44;;;;;;;;;;;10.60;91.30;;;;;;5135817;27;19927;-66
2022/11/22 02:25:25;;;;;;;;;;;10.40;91.20;;;;;;5134439;27;19998;-65
2022/11/22 02:27:51;;;;;;;;;;;;;;;;;;5113725;27;19924;-67
2022/11/22 02:30:17;;;;;;;;;;;10.50;91.30;;;;;;5129916;27;20020;-65
2022/11/22 02:32:43;;;;;;;;;;;10.40;91.30;;;;;;5113563;28;19924;-65
2022/11/22 02:35:22;;;;;;;;;;;10.50;91.30;;;;;;5114772;28;20010;-66
2022/11/22 02:37:48;;;;;;;;;;;10.50;91.30;;;;;;5097055;28;20323;-66
2022/11/22 02:40:14;;;;;;;;;;;;;;;;;;5096590;27;19964;-66
2022/11/22 02:42:41;;;;;;;;;;;10.50;91.40;;;;;;5114173;28;20292;-66
2022/11/22 02:45:07;;;;;;;;;;;10.80;91.50;;;;;;5096415;28;20376;-66
2022/11/22 02:47:32;;;;;;;;;;;10.50;91.40;;;;;;5113600;28;19931;-65
2022/11/22 02:49:58;;;;;;;;;;;10.50;91.40;;;;;;5113219;28;20293;-66
2022/11/22 02:52:24;;;;;;;;;;;10.60;91.40;;;;;;5131149;27;20337;-66
2022/11/22 02:54:50;;;;;;;;;;;;;;;;;;5134890;27;20446;-66
2022/11/22 02:57:15;;;;;;;;;;;10.60;91.50;;;;;;5135234;27;19923;-66
2022/11/22 02:59:41;;;;;;;;;;;10.50;91.50;;;;;;5132832;27;20014;-66
2022/11/22 03:02:07;;;;;;;;;;;;;;;;;;5122034;27;20019;-67
2022/11/22 03:04:33;;;;;;;;;;;10.50;91.50;;;;;;5121019;27;20385;-66
2022/11/22 03:06:59;;;;;;;;;;;10.50;91.50;;;;;;5133535;27;19919;-66
2022/11/22 03:09:25;;;;;;;;;;;10.50;91.50;;;;;;5116754;27;19923;-66
2022/11/22 03:11:51;;;;;;;;;;;10.70;91.60;;;;;;5133555;27;19931;-66
2022/11/22 03:14:16;;;;;;;;;;;10.50;91.50;;;;;;5133301;27;20376;-67
2022/11/22 03:16:42;;;;;;;;;;;10.50;91.50;;;;;;5128954;28;19931;-66
2022/11/22 03:19:08;;;;;;;;;;;10.60;91.60;;;;;;5112921;28;19923;-66
2022/11/22 03:21:34;;;;;;;;;;;10.40;91.50;;;;;;5112517;28;19937;-65
2022/11/22 03:24:00;;;;;;;;;;;10.70;91.60;;;;;;5112861;28;19953;-66
2022/11/22 03:26:25;;;;;;;;;;;10.50;91.60;;;;;;5113213;28;19924;-66
2022/11/22 03:28:51;;;;;;;;;;;10.50;91.60;;;;;;5124061;28;19946;-66
2022/11/22 03:31:17;;;;;;;;;;;10.50;91.60;;;;;;5117234;28;20342;-66
2022/11/22 03:33:42;;;;;;;;;;;10.80;91.70;;;;;;5119162;28;19938;-66
2022/11/22 03:36:08;;;;;;;;;;;10.60;91.70;;;;;;5133365;28;19923;-65
2022/11/22 03:38:34;;;;;;;;;;;10.70;91.70;;;;;;5133285;28;19950;-65
2022/11/22 03:41:00;;;;;;;;;;;10.60;91.60;;;;;;5132339;28;19924;-66
2022/11/22 03:43:25;;;;;;;;;;;10.30;91.60;;;;;;5134012;28;19931;-66
2022/11/22 03:45:51;;;;;;;;;;;10.60;91.70;;;;;;5133253;28;19923;-66
2022/11/22 03:48:17;;;;;;;;;;;10.60;91.70;;;;;;5134801;27;19924;-65
2022/11/22 03:50:42;;;;;;;;;;;10.20;91.60;;;;;;5127263;28;19973;-65
2022/11/22 03:53:08;;;;;;;;;;;10.60;91.70;;;;;;5110853;28;19976;-66
2022/11/22 03:55:34;;;;;;;;;;;10.40;91.70;;;;;;5133109;28;19975;-66
2022/11/22 03:58:00;;;;;;;;;;;;;;;;;;5133070;28;19949;-67
2022/11/22 04:00:25;;;;;;;;;;;10.60;91.70;;;;;;5128048;28;19969;-66
2022/11/22 04:02:51;;;;;;;;;;;10.40;91.70;;;;;;5123114;28;19926;-69
2022/11/22 04:05:16;;;;;;;;;;;10.40;91.70;;;;;;5150518;27;20009;-66
2022/11/22 04:07:42;;;;;;;;;;;10.70;91.80;;;;;;5127848;28;20432;-66
2022/11/22 04:10:08;;;;;;;;;;;10.50;91.70;;;;;;5112436;28;20404;-66
2022/11/22 04:12:33;;;;;;;;;;;10.80;91.80;;;;;;5112845;28;19928;-66
2022/11/22 04:15:05;;;;;;;;;;;10.40;91.70;;;;;;5113730;28;19930;-65
2022/11/22 04:17:39;;;;;;;;;;;10.40;91.70;;;;;;5115732;28;19931;-66
2022/11/22 04:23:00;;;;;;;;;;;10.70;91.80;;;;;;5117119;28;19947;-65
2022/11/22 04:25:26;;;;;;;;;;;10.80;91.80;;;;;;5128318;27;19923;-66
2022/11/22 04:27:52;;;;;;;;;;;10.60;91.80;;;;;;5136901;27;19931;-66
2022/11/22 04:30:17;;;;;;;;;;;10.50;91.80;;;;;;5136425;27;19924;-65
2022/11/22 04:32:46;;;;;;;;;;;10.70;91.80;;;;;;5133139;27;19935;-66
2022/11/22 04:35:12;;;;;;;;;;;10.80;91.90;;;;;;5136793;27;20272;-66
2022/11/22 04:37:38;;;;;;;;;;;10.90;91.90;;;;;;5119614;27;19923;-66
2022/11/22 04:40:04;;;;;;;;;;;10.60;91.80;;;;;;5136400;27;20392;-66
2022/11/22 04:45:14;;;;;;;;;;;;;;;;;;5116008;28;19992;-66
2022/11/22 04:47:58;;;;;;;;;;;10.70;91.90;;;;;;5115950;28;20022;-66
2022/11/22 04:53:08;;;;;;;;;;;10.80;91.90;;;;;;5109930;27;19924;-65
2022/11/22 04:55:33;;;;;;;;;;;10.80;91.90;;;;;;5118849;27;19934;-66
2022/11/22 04:57:59;;;;;;;;;;;;;;;;;;5118960;27;19938;-67
2022/11/22 05:00:26;;;;;;;;;;;10.60;91.90;;;;;;5115183;28;20335;-66
2022/11/22 05:02:52;;;;;;;;;;;10.70;91.90;;;;;;5109974;27;19931;-66
2022/11/22 05:05:17;;;;;;;;;;;10.80;91.90;;;;;;5122829;27;19924;-66
2022/11/22 05:07:43;;;;;;;;;;;10.50;91.90;;;;;;5116737;28;19931;-66
2022/11/22 05:10:09;;;;;;;;;;;10.80;92.00;;;;;;5115208;28;19923;-66
2022/11/22 05:12:34;;;;;;;;;;;10.90;92.00;;;;;;5116670;27;19930;-66
2022/11/22 05:15:00;;;;;;;;;;;10.80;91.60;;;;;;5116708;27;20288;-66
2022/11/22 05:17:26;;;;;;;;;;;;;;;;;;5116508;27;19992;-67
2022/11/22 05:19:52;;;;;;;;;;;10.80;91.90;;;;;;5135727;27;20439;-67
2022/11/22 05:23:52;;;;;;;;;;;10.90;91.90;;;;;;5134286;27;19927;-66
2022/11/22 05:25:03;;;;;;;;;;;10.90;91.90;;;;;;5135396;27;19924;-65
2022/11/22 05:27:29;;;;;;;;;;;11.00;91.90;;;;;;5136797;27;19924;-65
2022/11/22 05:29:55;;;;;;;;;;;11.20;92.00;;;;;;5135402;27;19923;-65
2022/11/22 05:32:20;;;;;;;;;;;11.00;91.90;;;;;;5131062;27;19932;-66
2022/11/22 05:34:46;;;;;;;;;;;11.20;91.90;;;;;;5134948;27;20010;-66
2022/11/22 05:37:12;;;;;;;;;;;11.10;91.90;;;;;;5136810;27;19931;-66
2022/11/22 05:39:38;;;;;;;;;;;11.30;92.00;;;;;;5135524;27;19930;-66
2022/11/22 05:42:04;;;;;;;;;;;;;;;;;;5135758;27;19933;-66
2022/11/22 05:44:30;;;;;;;;;;;11.20;92.00;;;;;;5116727;27;19923;-66
2022/11/22 05:46:56;;;;;;;;;;;11.20;91.90;;;;;;5097582;28;19931;-66
2022/11/22 05:49:21;;;;;;;;;;;10.90;91.90;;;;;;5116484;27;19924;-66
2022/11/22 05:51:47;;;;;;;;;;;11.10;92.00;;;;;;5115790;28;19930;-66
2022/11/22 05:54:13;;;;;;;;;;;11.00;92.00;;;;;;5097510;28;19924;-66
2022/11/22 05:56:38;;;;;;;;;;;11.00;92.00;;;;;;5114271;28;19928;-66
2022/11/22 05:59:04;;;;;;;;;;;11.00;92.00;;;;;;5114548;28;19924;-66
2022/11/22 06:01:30;;;;;;;;;;;11.10;92.00;;;;;;5114176;28;20335;-66
2022/11/22 06:03:55;;;;;;;;;;;11.10;92.00;;;;;;5123323;27;19954;-66
2022/11/22 06:06:21;;;;;;;;;;;10.90;92.00;;;;;;5132322;27;19924;-66
2022/11/22 06:08:47;;;;;;;;;;;10.90;92.00;;;;;;5115474;28;19930;-65
2022/11/22 06:11:23;;;;;;;;;;;10.80;92.00;;;;;;5096949;28;20343;-66
2022/11/22 06:13:49;;;;;;;;;;;11.10;92.10;;;;;;5115455;27;19968;-65
2022/11/22 06:16:15;;;;;;;;;;;10.90;92.00;;;;;;5114183;28;19931;-66
2022/11/22 06:18:41;;;;;;;;;;;;;;;;;;5115045;28;19923;-66
2022/11/22 06:21:07;;;;;;;;;;;;;;;;;;5113264;27;19931;-66
2022/11/22 06:23:33;;;;;;;;;;;11.00;92.10;;;;;;5115787;27;19923;-66
2022/11/22 06:25:59;;;;;;;;;;;11.10;92.20;;;;;;5136169;27;19930;-66
2022/11/22 06:28:25;;;;;;;;;;;10.90;92.20;;;;;;5136025;27;20292;-66
2022/11/22 06:30:51;;;;;;;;;;;10.80;92.20;;;;;;5117066;27;19923;-66
2022/11/22 06:33:17;;;;;;;;;;;;;;;;;;5131136;27;19992;-66
2022/11/22 06:35:42;;;;;;;;;;;11.00;92.20;;;;;;5115480;27;19924;-66
2022/11/22 06:38:08;;;;;;;;;;;10.90;92.20;;;;;;5119957;27;20388;-65
2022/11/22 06:40:34;;;;;;;;;;;11.10;92.30;;;;;;5128808;27;19951;-66
2022/11/22 06:42:59;;;;;;;;;;;10.90;92.20;;;;;;5115279;28;19977;-66
2022/11/22 06:45:25;;;;;;;;;;;11.00;92.30;;;;;;5123432;27;19924;-66
2022/11/22 06:47:51;;;;;;;;;;;10.90;92.30;;;;;;5135107;27;19930;-66
2022/11/22 06:50:16;;;;;;;;;;;11.00;92.30;;;;;;5133652;27;19972;-65
2022/11/22 06:52:42;;;;;;;;;;;;;;;;;;5132962;27;19924;-66
2022/11/22 06:55:08;;;;;;;;;;;;;;;;;;5147694;27;19962;-67
2022/11/22 06:57:34;;;;;;;;;;;11.00;92.20;;;;;;5133564;27;19935;-66
2022/11/22 07:00:00;;;;;;;;;;;11.00;92.30;;;;;;5135255;27;19990;-66
2022/11/22 07:02:25;;;;;;;;;;;10.90;92.30;;;;;;5133689;27;20398;-66
2022/11/22 07:04:51;;;;;;;;;;;10.80;92.30;;;;;;5135195;27;19930;-66
2022/11/22 07:07:17;;;;;;;;;;;10.80;92.30;;;;;;5118400;27;19923;-65
2022/11/22 07:09:43;;;;;;;;;;;11.20;92.40;;;;;;5112999;28;19993;-66
2022/11/22 07:12:08;;;;;;;;;;;11.10;92.40;;;;;;5113011;28;19968;-66
2022/11/22 07:14:34;;;;;;;;;;;11.00;92.30;;;;;;5117746;27;19928;-65
2022/11/22 07:17:00;;;;;;;;;;;11.10;92.30;;;;;;5133459;27;20022;-65
2022/11/22 07:19:25;;;;;;;;;;;11.00;92.40;;;;;;5135375;27;19967;-66
2022/11/22 07:21:51;;;;;;;;;;;11.10;92.40;;;;;;5134524;27;19946;-66
2022/11/22 07:24:17;;;;;;;;;;;11.00;92.30;;;;;;5133410;28;19923;-66
2022/11/22 07:26:42;;;;;;;;;;;10.90;92.30;;;;;;5134048;27;19962;-66
2022/11/22 07:29:08;;;;;;;;;;;10.90;92.30;;;;;;5133377;28;19982;-66
2022/11/22 07:31:33;;;;;;;;;;;11.00;92.30;;;;;;5130679;27;19928;-65
2022/11/22 07:33:59;;;;;;;;;;;10.90;92.30;;;;;;5114403;28;19947;-65
2022/11/22 07:36:28;;;;;;;;;;;10.70;92.00;;;;;;5112568;28;19930;-66
2022/11/22 07:38:54;;;;;;;;;;;;;;;;;;5112547;28;19928;-65
2022/11/22 07:41:21;;;;;;;;;;;11.20;92.40;;;;;;5114289;28;19967;-65
2022/11/22 07:43:46;;;;;;;;;;;11.10;92.30;;;;;;5114240;28;19924;-66
2022/11/22 07:46:28;;;;;;;;;;;11.00;92.30;;;;;;5095832;28;19931;-66
2022/11/22 07:48:53;;;;;;;;;;;11.20;92.40;;;;;;5113462;28;19932;-65
2022/11/22 07:51:19;;;;;;;;;;;11.00;92.40;;;;;;5115374;28;19930;-65
2022/11/22 07:53:45;;;;;;;;;;;10.90;92.30;;;;;;5117748;28;20330;-65
2022/11/22 07:56:13;;;;;;;;;;;10.90;92.40;;;;;;5117175;27;21571;-65
2022/11/22 07:58:38;;;;;;;;;;;11.10;92.50;;;;;;5116909;28;19923;-65
2022/11/22 08:01:07;;;;;;;;;;;11.10;92.50;;;;;;5118400;28;20380;-65
2022/11/22 08:03:33;;;;;;;;;;;11.10;92.50;;;;;;5099522;28;19924;-65
2022/11/22 08:05:59;;;;;;;;;;;11.30;92.50;;;;;;5124463;27;19930;-65
2022/11/22 08:08:25;;;;;;;;;;;11.10;92.50;;;;;;5132470;27;20002;-65
2022/11/22 08:10:50;;;;;;;;;;;10.90;92.40;;;;;;5116254;28;20019;-65
2022/11/22 08:13:16;;;;;;;;;;;11.10;92.50;;;;;;5116294;28;19930;-65
2022/11/22 08:15:42;;;;;;;;;;;11.10;92.50;;;;;;5117803;28;19970;-65
2022/11/22 08:18:07;;;;;;;;;;;11.40;92.50;;;;;;5116071;27;19924;-66
2022/11/22 08:20:33;;;;;;;;;;;11.20;92.10;;;;;;5130397;27;20022;-66
2022/11/22 08:22:59;;;;;;;;;;;11.00;92.40;;;;;;5129271;27;19954;-68
2022/11/22 08:25:24;;;;;;;;;;;11.10;92.40;;;;;;5136722;27;20048;-71
2022/11/22 08:27:50;;;;;;;;;;;11.10;92.40;;;;;;5136922;27;20312;-65
2022/11/22 08:30:16;;;;;;;;;;;;;;;;;;5136609;27;20274;-67
2022/11/22 08:32:41;;;;;;;;;;;11.20;92.50;;;;;;5136423;27;20358;-65
2022/11/22 08:35:07;;;;;;;;;;;11.40;92.60;;;;;;5136840;27;20009;-69
2022/11/22 08:37:33;;;;;;;;;;;11.50;92.60;;;;;;5136873;27;20310;-65
2022/11/22 08:39:59;;;;;;;;;;;11.20;92.50;;;;;;5128395;27;19924;-65
2022/11/22 08:42:25;;;;;;;;;;;11.50;92.60;;;;;;5116089;28;19931;-66
2022/11/22 08:44:50;;;;;;;;;;;11.40;92.60;;;;;;5098995;28;19919;-65
2022/11/22 08:47:16;;;;;;;;;;;11.60;92.70;;;;;;5115881;27;20369;-65
2022/11/22 08:49:42;;;;;;;;;;;;;;;;;;5115269;27;20462;-66
2022/11/22 08:52:08;;;;;;;;;;;11.30;92.40;;;;;;5117092;28;19930;-66
2022/11/22 08:54:33;;;;;;;;;;;11.20;92.70;;;;;;5115417;28;19928;-65
2022/11/22 08:56:59;;;;;;;;;;;11.20;92.60;;;;;;5123800;27;20009;-64
2022/11/22 08:59:25;;;;;;;;;;;11.60;92.70;;;;;;5135275;27;19923;-66
2022/11/22 09:01:50;;;;;;;;;;;11.50;92.70;;;;;;5129971;27;19923;-66
2022/11/22 09:04:16;;;;;;;;;;;11.40;92.70;;;;;;5129336;27;20338;-66
2022/11/22 09:06:41;;;;;;;;;;;11.40;92.70;;;;;;5132371;27;19931;-65
2022/11/22 09:09:07;;;;;;;;;;;11.10;92.60;;;;;;5132060;27;19924;-66
2022/11/22 09:11:33;;;;;;;;;;;11.30;92.70;;;;;;5116477;28;19928;-66
2022/11/22 09:13:59;;;;;;;;;;;11.40;92.70;;;;;;5116936;27;19931;-66
2022/11/22 09:16:27;;;;;;;;;;;11.20;92.70;;;;;;5116390;28;19930;-66
2022/11/22 09:18:53;;;;;;;;;;;11.50;92.80;;;;;;5114636;27;20036;-66
2022/11/22 09:21:19;;;;;;;;;;;11.50;92.80;;;;;;5120132;27;19924;-65
2022/11/22 09:23:45;;;;;;;;;;;11.20;92.80;;;;;;5114932;28;20014;-66
2022/11/22 09:26:12;;;;;;;;;;;11.30;92.90;;;;;;5098294;28;20353;-67
2022/11/22 09:28:38;;;;;;;;;;;11.60;93.00;;;;;;5116724;28;19928;-66
2022/11/22 09:31:04;;;;;;;;;;;;;;;;;;5128611;27;19976;-66
2022/11/22 09:33:30;;;;;;;;;;;11.40;93.00;;;;;;5136526;27;20419;-66
2022/11/22 09:35:59;;;;;;;;;;;11.40;93.00;;;;;;5135339;27;19924;-66
2022/11/22 09:38:25;;;;;;;;;;;11.50;93.00;;;;;;5135259;27;19923;-66
2022/11/22 09:40:52;;;;;;;;;;;11.10;92.90;;;;;;5135267;27;19947;-65
2022/11/22 09:43:37;;;;;;;;;;;11.30;93.00;;;;;;5135867;27;19930;-65
2022/11/22 09:46:15;;;;;;;;;;;11.60;93.10;;;;;;5135440;27;20257;-66
2022/11/22 09:48:41;;;;;;;;;;;11.30;93.20;;;;;;5118119;27;20334;-66
2022/11/22 09:51:07;;;;;;;;;;;;;;;;;;5121622;27;19924;-67
2022/11/22 09:53:51;;;;;;;;;;;11.50;93.20;;;;;;5114406;28;19969;-66
2022/11/22 09:56:17;;;;;;;;;;;11.70;93.30;;;;;;5117336;27;19930;-65
2022/11/22 09:58:46;;;;;;;;;;;;;;;;;;5135150;27;20358;-65
2022/11/22 10:01:12;;;;;;;;;;;;;;;;;;5130280;27;19970;-67
2022/11/22 10:03:38;;;;;;;;;;;;;;;;;;5133468;27;20029;-66
2022/11/22 10:06:05;;;;;;;;;;;11.70;93.30;;;;;;5119817;27;19920;-68
2022/11/22 10:08:31;;;;;;;;;;;;;;;;;;5122494;27;19971;-66
2022/11/22 10:10:57;;;;;;;;;;;11.60;93.30;;;;;;5132315;27;19979;-68
2022/11/22 10:13:29;;;;;;;;;;;11.40;93.20;;;;;;5117678;27;20350;-70
2022/11/22 10:15:55;;;;;;;;;;;;;;;;;;5128050;27;20381;-66
2022/11/22 10:18:21;;;;;;;;;;;11.50;93.30;;;;;;5134649;27;19923;-68
2022/11/22 10:20:48;;;;;;;;;;;;;;;;;;5144785;27;19931;-69
2022/11/22 10:23:14;;;;;;;;;;;11.40;93.20;;;;;;5127285;27;19931;-68
2022/11/22 10:25:42;;;;;;;;;;;11.40;93.20;;;;;;5117274;27;19931;-69
2022/11/22 10:28:18;;;;;;;;;;;11.50;93.20;;;;;;5134193;27;19924;-67
2022/11/22 10:30:44;;;;;;;;;;;;;;;;;;5133878;27;19927;-67
2022/11/22 10:33:10;;;;;;;;;;;11.60;93.30;;;;;;5134130;27;19927;-67
2022/11/22 10:35:57;;;;;;;;;;;11.70;93.30;;;;;;5133555;27;19926;-68
2022/11/22 10:38:24;;;;;;;;;;;11.70;93.30;;;;;;5097720;27;19973;-68
2022/11/22 10:41:12;;;;;;;;;;;11.40;92.90;;;;;;5114948;28;19977;-68
2022/11/22 10:43:58;;;;;;;;;;;11.50;93.30;;;;;;5130804;27;19923;-69
2022/11/22 10:46:24;;;;;;;;;;;;;;;;;;5112918;28;20018;-65
2022/11/22 10:49:01;;;;;;;;;;;11.40;93.30;;;;;;5126155;27;20446;-68
2022/11/22 10:51:27;;;;;;;;;;;;;;;;;;5130078;27;20018;-69
2022/11/22 10:54:08;;;;;;;;;;;11.70;93.30;;;;;;5117303;27;19927;-69
2022/11/22 10:56:45;;;;;;;;;;;11.60;93.30;;;;;;5125113;27;19923;-65
2022/11/22 10:59:26;;;;;;;;;;;11.90;93.40;;;;;;5131395;27;20289;-66
2022/11/22 11:02:01;;;;;;;;;;;11.80;93.40;;;;;;5135183;27;19923;-68
2022/11/22 11:04:29;;;;;;;;;;;11.90;93.40;;;;;;5135304;27;20373;-67
2022/11/22 11:06:58;;;;;;;;;;;11.90;93.40;;;;;;5133766;27;20448;-65
2022/11/22 11:09:38;;;;;;;;;;;11.70;93.30;;;;;;5123038;27;19924;-65
2022/11/22 11:12:05;;;;;;;;;;;11.90;93.40;;;;;;5115869;27;19935;-65
2022/11/22 11:14:33;;;;;;;;;;;11.70;93.30;;;;;;5114614;28;19931;-65
2022/11/22 11:16:58;;;;;;;;;;;11.60;93.30;;;;;;5113068;28;20388;-65
2022/11/22 11:19:24;;;;;;;;;;;11.60;93.30;;;;;;5067120;28;19977;-68
2022/11/22 11:22:01;;;;;;;;;;;11.60;93.40;;;;;;5092348;28;19966;-65
2022/11/22 11:24:28;;;;;;;;;;;11.70;93.40;;;;;;5092826;28;19924;-65
2022/11/22 11:26:54;;;;;;;;;;;11.70;93.40;;;;;;5112048;28;20305;-65
2022/11/22 11:29:22;;;;;;;;;;;11.90;93.50;;;;;;5099573;28;19927;-67
2022/11/22 11:31:48;;;;;;;;;;;;;;;;;;5110106;28;20300;-65
2022/11/22 11:34:21;;;;;;;;;;;11.90;93.40;;;;;;5106041;28;19975;-65
2022/11/22 11:36:47;;;;;;;;;;;11.70;93.30;;;;;;5098202;28;20096;-65
2022/11/22 11:39:19;;;;;;;;;;;11.70;93.30;;;;;;5100895;28;19928;-66
2022/11/22 11:41:46;;;;;;;;;;;11.90;93.40;;;;;;5118173;28;20020;-65
2022/11/22 11:44:31;;;;;;;;;;;11.70;93.30;;;;;;5116993;28;19919;-65
2022/11/22 11:46:57;;;;;;;;;;;11.70;93.30;;;;;;5117900;28;19978;-65
2022/11/22 11:49:23;;;;;;;;;;;;;;;;;;5114801;28;19987;-66
2022/11/22 11:51:52;;;;;;;;;;;12.20;93.50;;;;;;5098132;28;19924;-65
2022/11/22 11:54:18;;;;;;;;;;;11.90;93.40;;;;;;5096038;28;19924;-65
2022/11/22 11:57:11;;;;;;;;;;;11.90;93.30;;;;;;5105350;28;19923;-65
2022/11/22 11:59:37;;;;;;;;;;;;;;;;;;5059989;28;19924;-65
2022/11/22 12:02:09;;;;;;;;;;;12.10;93.30;;;;;;5078588;28;20003;-65
2022/11/22 12:04:35;;;;;;;;;;;11.90;93.30;;;;;;5077761;28;20001;-65
2022/11/22 12:07:15;;;;;;;;;;;12.40;93.40;;;;;;5078267;28;20010;-65
2022/11/22 12:09:44;;;;;;;;;;;12.00;93.30;;;;;;5077500;28;20096;-65
2022/11/22 12:12:29;;;;;;;;;;;11.90;93.30;;;;;;5095197;28;19925;-65
2022/11/22 12:15:06;;;;;;;;;;;12.20;93.40;;;;;;5061469;28;20401;-65
2022/11/22 12:17:34;;;;;;;;;;;12.20;93.40;;;;;;5061840;28;19975;-66
2022/11/22 12:20:04;;;;;;;;;;;12.00;93.30;;;;;;5060278;28;19932;-66
2022/11/22 12:22:49;;;;;;;;;;;12.10;93.30;;;;;;5057968;28;19970;-65
2022/11/22 12:25:30;;;;;;;;;;;12.00;93.00;;;;;;5058253;28;19932;-65
2022/11/22 12:27:55;;;;;;;;;;;12.20;93.30;;;;;;5078153;28;20343;-65
2022/11/22 12:30:21;;;;;;;;;;;11.90;93.30;;;;;;5077827;28;19931;-66
2022/11/22 12:32:57;;;;;;;;;;;11.90;93.30;;;;;;5094775;28;19928;-65
2022/11/22 12:35:23;;;;;;;;;;;11.90;93.20;;;;;;5077302;28;19928;-65
2022/11/22 12:37:49;;;;;;;;;;;;;;;;;;5098653;28;20278;-65
2022/11/22 12:40:21;;;;;;;;;;;12.00;93.20;;;;;;5101901;28;20293;-65
2022/11/22 12:42:57;;;;;;;;;;;11.90;93.20;;;;;;5116126;28;20301;-66
2022/11/22 12:45:24;;;;;;;;;;;12.20;93.30;;;;;;5099115;28;20262;-65
2022/11/22 12:47:50;;;;;;;;;;;;;;;;;;5098246;28;19924;-67
2022/11/22 12:50:19;;;;;;;;;;;12.10;93.30;;;;;;5132815;27;20398;-65
2022/11/22 12:52:49;;;;;;;;;;;12.00;93.20;;;;;;5107008;28;19931;-65
2022/11/22 12:55:25;;;;;;;;;;;12.10;93.30;;;;;;5127061;27;20286;-65
2022/11/22 12:58:09;;;;;;;;;;;11.90;93.30;;;;;;5119984;27;19931;-66
2022/11/22 13:00:38;;;;;;;;;;;12.10;93.30;;;;;;5100141;28;19924;-65
2022/11/22 13:03:04;;;;;;;;;;;;;;;;;;5095388;28;20270;-67
2022/11/22 13:05:34;;;;;;;;;;;11.90;93.40;;;;;;5094828;28;19924;-67
2022/11/22 13:08:03;;;;;;;;;;;12.20;93.40;;;;;;5103431;28;19924;-64
2022/11/22 13:10:29;;;;;;;;;;;12.00;93.50;;;;;;5125823;27;19924;-65
2022/11/22 13:12:55;;;;;;;;;;;12.10;93.50;;;;;;5115028;28;19924;-64
2022/11/22 13:15:30;;;;;;;;;;;12.00;93.50;;;;;;5098461;28;19924;-64
2022/11/22 13:17:56;;;;;;;;;;;12.10;93.50;;;;;;5098050;28;19923;-65
2022/11/22 13:20:29;;;;;;;;;;;12.00;93.50;;;;;;5097972;28;19930;-65
2022/11/22 13:23:04;;;;;;;;;;;12.20;93.50;;;;;;5116194;28;20361;-64
2022/11/22 13:25:30;;;;;;;;;;;12.20;93.50;;;;;;5116220;28;19969;-65
2022/11/22 13:27:59;;;;;;;;;;;11.90;93.50;;;;;;5119744;27;20349;-65
2022/11/22 13:30:26;;;;;;;;;;;12.10;93.50;;;;;;5082743;28;20377;-64
2022/11/22 13:32:55;;;;;;;;;;;11.70;93.40;;;;;;5113930;28;20300;-65
2022/11/22 13:35:25;;;;;;;;;;;11.80;93.40;;;;;;5099188;28;20278;-65
2022/11/22 13:38:17;;;;;;;;;;;11.90;93.50;;;;;;5096736;28;19931;-67
2022/11/22 13:40:44;;;;;;;;;;;12.00;93.50;;;;;;5106649;28;20015;-69
2022/11/22 13:43:10;;;;;;;;;;;;;;;;;;5114732;28;19924;-68
2022/11/22 13:45:54;;;;;;;;;;;11.80;93.40;;;;;;5097710;28;19924;-66
2022/11/22 13:48:35;;;;;;;;;;;12.20;93.60;;;;;;5097522;28;19924;-64
2022/11/22 13:51:01;;;;;;;;;;;12.00;93.50;;;;;;5130730;27;19978;-64
2022/11/22 13:53:28;;;;;;;;;;;12.00;93.60;;;;;;5076821;28;19975;-64
2022/11/22 13:55:54;;;;;;;;;;;;;;;;;;5094350;28;20032;-65
2022/11/22 13:58:22;;;;;;;;;;;12.00;93.60;;;;;;5093956;28;20446;-65
2022/11/22 14:00:48;;;;;;;;;;;12.10;93.60;;;;;;5094154;28;19924;-64
2022/11/22 14:03:14;;;;;;;;;;;12.00;93.60;;;;;;5104636;28;20015;-64
2022/11/22 14:05:40;;;;;;;;;;;11.90;93.50;;;;;;5114766;28;20318;-67
2022/11/22 14:08:24;;;;;;;;;;;11.90;93.50;;;;;;5095934;28;19924;-68
2022/11/22 14:10:52;;;;;;;;;;;11.90;93.50;;;;;;5101061;28;20385;-65
2022/11/22 14:13:21;;;;;;;;;;;11.80;93.50;;;;;;5094895;28;19924;-65
2022/11/22 14:15:47;;;;;;;;;;;11.90;93.50;;;;;;5107291;28;20374;-65
2022/11/22 14:18:12;;;;;;;;;;;12.00;93.60;;;;;;5131351;27;19973;-65
2022/11/22 14:20:41;;;;;;;;;;;11.90;93.50;;;;;;5130757;27;20412;-65
2022/11/22 14:23:19;;;;;;;;;;;11.90;93.50;;;;;;5095685;28;19936;-66
2022/11/22 14:25:56;;;;;;;;;;;11.90;93.50;;;;;;5104121;28;19928;-65
2022/11/22 14:28:22;;;;;;;;;;;11.90;93.50;;;;;;5094880;28;19924;-66
2022/11/22 14:30:52;;;;;;;;;;;12.10;93.60;;;;;;5094766;28;19993;-65
2022/11/22 14:33:18;;;;;;;;;;;;;;;;;;5094111;28;20018;-67
2022/11/22 14:36:02;;;;;;;;;;;11.80;93.50;;;;;;5114228;28;19923;-66
2022/11/22 14:38:29;;;;;;;;;;;11.90;93.50;;;;;;5130382;27;20010;-66
2022/11/22 14:41:13;;;;;;;;;;;12.00;93.50;;;;;;5115037;28;19970;-66
2022/11/22 14:43:38;;;;;;;;;;;11.80;93.20;;;;;;5114743;28;20432;-66
2022/11/22 14:46:22;;;;;;;;;;;12.00;93.60;;;;;;5106823;28;19974;-65